sensor_id;sensor_type;location;lat;lon;timestamp;P1;durP1;ratioP1;P2;durP2;ratioP2
38940;SDS011;43236;47.208;7.518;2024-02-23T00:01:45;0.57;;;0.57;;
38940;SDS011;43236;47.208;7.518;2024-02-23T00:04:33;0.50;;;0.50;;
38940;SDS011;43236;47.208;7.518;2024-02-23T00:07:20;0.40;;;0.40;;
38940;SDS011;43236;47.208;7.518;2024-02-23T00:10:07;1.35;;;0.52;;
38940;SDS011;43236;47.208;7.518;2024-02-23T00:12:54;0.47;;;0.47;;
38940;SDS011;43236;47.208;7.518;2024-02-23T00:15:43;0.30;;;0.30;;
38940;SDS011;43236;47.208;7.518;2024-02-23T00:18:30;1.45;;;0.50;;
38940;SDS011;43236;47.208;7.518;2024-02-23T00:21:17;0.40;;;0.40;;
38940;SDS011;43236;47.208;7.518;2024-02-23T00:24:04;0.60;;;0.60;;
38940;SDS011;43236;47.208;7.518;2024-02-23T00:26:52;0.40;;;0.40;;
38940;SDS011;43236;47.208;7.518;2024-02-23T00:29:39;0.35;;;0.35;;
38940;SDS011;43236;47.208;7.518;2024-02-23T00:32:27;0.60;;;0.60;;
38940;SDS011;43236;47.208;7.518;2024-02-23T00:35:14;0.50;;;0.50;;
38940;SDS011;43236;47.208;7.518;2024-02-23T00:38:01;1.80;;;0.70;;
38940;SDS011;43236;47.208;7.518;2024-02-23T00:40:48;0.50;;;0.50;;
38940;SDS011;43236;47.208;7.518;2024-02-23T00:43:37;0.50;;;0.50;;
38940;SDS011;43236;47.208;7.518;2024-02-23T00:46:24;0.47;;;0.47;;
38940;SDS011;43236;47.208;7.518;2024-02-23T00:49:13;0.32;;;0.32;;
38940;SDS011;43236;47.208;7.518;2024-02-23T00:52:00;0.40;;;0.40;;
38940;SDS011;43236;47.208;7.518;2024-02-23T00:54:47;0.57;;;0.57;;
38940;SDS011;43236;47.208;7.518;2024-02-23T00:57:34;0.40;;;0.40;;
38940;SDS011;43236;47.208;7.518;2024-02-23T01:00:21;0.30;;;0.30;;
38940;SDS011;43236;47.208;7.518;2024-02-23T01:03:08;0.50;;;0.50;;
38940;SDS011;43236;47.208;7.518;2024-02-23T01:05:57;0.73;;;0.73;;
38940;SDS011;43236;47.208;7.518;2024-02-23T01:08:44;0.40;;;0.40;;
38940;SDS011;43236;47.208;7.518;2024-02-23T01:11:31;0.45;;;0.45;;
38940;SDS011;43236;47.208;7.518;2024-02-23T01:14:18;0.30;;;0.30;;
38940;SDS011;43236;47.208;7.518;2024-02-23T01:17:05;0.40;;;0.40;;
38940;SDS011;43236;47.208;7.518;2024-02-23T01:19:52;0.38;;;0.38;;
38940;SDS011;43236;47.208;7.518;2024-02-23T01:22:43;0.40;;;0.40;;
38940;SDS011;43236;47.208;7.518;2024-02-23T01:25:31;0.50;;;0.50;;
38940;SDS011;43236;47.208;7.518;2024-02-23T01:28:20;0.38;;;0.38;;
38940;SDS011;43236;47.208;7.518;2024-02-23T01:31:08;0.52;;;0.52;;
38940;SDS011;43236;47.208;7.518;2024-02-23T01:33:56;0.40;;;0.40;;
38940;SDS011;43236;47.208;7.518;2024-02-23T01:36:43;0.50;;;0.50;;
38940;SDS011;43236;47.208;7.518;2024-02-23T01:39:31;0.40;;;0.40;;
38940;SDS011;43236;47.208;7.518;2024-02-23T01:42:18;0.40;;;0.40;;
38940;SDS011;43236;47.208;7.518;2024-02-23T01:45:06;0.60;;;0.50;;
38940;SDS011;43236;47.208;7.518;2024-02-23T01:47:53;0.50;;;0.50;;
38940;SDS011;43236;47.208;7.518;2024-02-23T01:50:40;0.30;;;0.30;;
38940;SDS011;43236;47.208;7.518;2024-02-23T01:53:29;0.45;;;0.45;;
38940;SDS011;43236;47.208;7.518;2024-02-23T01:56:18;0.50;;;0.50;;
38940;SDS011;43236;47.208;7.518;2024-02-23T01:59:06;0.30;;;0.30;;
38940;SDS011;43236;47.208;7.518;2024-02-23T02:01:55;2.00;;;0.50;;
38940;SDS011;43236;47.208;7.518;2024-02-23T02:04:42;0.63;;;0.63;;
38940;SDS011;43236;47.208;7.518;2024-02-23T02:07:29;0.50;;;0.50;;
38940;SDS011;43236;47.208;7.518;2024-02-23T02:10:16;0.50;;;0.50;;
38940;SDS011;43236;47.208;7.518;2024-02-23T02:13:05;0.47;;;0.47;;
38940;SDS011;43236;47.208;7.518;2024-02-23T02:15:52;2.20;;;0.50;;
38940;SDS011;43236;47.208;7.518;2024-02-23T02:18:39;0.70;;;0.70;;
38940;SDS011;43236;47.208;7.518;2024-02-23T02:21:26;0.52;;;0.52;;
38940;SDS011;43236;47.208;7.518;2024-02-23T02:24:13;0.50;;;0.50;;
38940;SDS011;43236;47.208;7.518;2024-02-23T02:27:00;0.73;;;0.60;;
38940;SDS011;43236;47.208;7.518;2024-02-23T02:29:51;0.38;;;0.38;;
38940;SDS011;43236;47.208;7.518;2024-02-23T02:32:38;1.00;;;0.55;;
38940;SDS011;43236;47.208;7.518;2024-02-23T02:35:24;0.40;;;0.40;;
38940;SDS011;43236;47.208;7.518;2024-02-23T02:38:11;0.55;;;0.55;;
38940;SDS011;43236;47.208;7.518;2024-02-23T02:40:59;0.88;;;0.63;;
38940;SDS011;43236;47.208;7.518;2024-02-23T02:43:46;0.30;;;0.30;;
38940;SDS011;43236;47.208;7.518;2024-02-23T02:46:34;0.40;;;0.40;;
38940;SDS011;43236;47.208;7.518;2024-02-23T02:49:22;0.50;;;0.50;;
38940;SDS011;43236;47.208;7.518;2024-02-23T02:52:09;0.65;;;0.52;;
38940;SDS011;43236;47.208;7.518;2024-02-23T02:54:56;0.50;;;0.50;;
38940;SDS011;43236;47.208;7.518;2024-02-23T02:57:43;0.40;;;0.40;;
38940;SDS011;43236;47.208;7.518;2024-02-23T03:00:31;0.88;;;0.73;;
38940;SDS011;43236;47.208;7.518;2024-02-23T03:03:19;0.55;;;0.50;;
38940;SDS011;43236;47.208;7.518;2024-02-23T03:06:07;0.30;;;0.30;;
38940;SDS011;43236;47.208;7.518;2024-02-23T03:08:54;1.23;;;0.52;;
38940;SDS011;43236;47.208;7.518;2024-02-23T03:11:41;0.50;;;0.50;;
38940;SDS011;43236;47.208;7.518;2024-02-23T03:14:28;0.32;;;0.32;;
38940;SDS011;43236;47.208;7.518;2024-02-23T03:17:15;0.30;;;0.30;;
38940;SDS011;43236;47.208;7.518;2024-02-23T03:20:04;0.57;;;0.57;;
38940;SDS011;43236;47.208;7.518;2024-02-23T03:22:54;0.50;;;0.50;;
38940;SDS011;43236;47.208;7.518;2024-02-23T03:25:41;0.30;;;0.30;;
38940;SDS011;43236;47.208;7.518;2024-02-23T03:28:28;0.65;;;0.50;;
38940;SDS011;43236;47.208;7.518;2024-02-23T03:31:15;0.50;;;0.50;;
38940;SDS011;43236;47.208;7.518;2024-02-23T03:34:02;0.40;;;0.40;;
38940;SDS011;43236;47.208;7.518;2024-02-23T03:36:51;0.47;;;0.47;;
38940;SDS011;43236;47.208;7.518;2024-02-23T03:39:38;0.45;;;0.45;;
38940;SDS011;43236;47.208;7.518;2024-02-23T03:42:25;0.50;;;0.50;;
38940;SDS011;43236;47.208;7.518;2024-02-23T03:45:12;0.30;;;0.30;;
38940;SDS011;43236;47.208;7.518;2024-02-23T03:47:59;0.50;;;0.50;;
38940;SDS011;43236;47.208;7.518;2024-02-23T03:50:48;0.65;;;0.65;;
38940;SDS011;43236;47.208;7.518;2024-02-23T03:53:36;0.40;;;0.40;;
38940;SDS011;43236;47.208;7.518;2024-02-23T03:56:23;0.43;;;0.43;;
38940;SDS011;43236;47.208;7.518;2024-02-23T03:59:10;0.52;;;0.52;;
38940;SDS011;43236;47.208;7.518;2024-02-23T04:01:57;0.88;;;0.85;;
38940;SDS011;43236;47.208;7.518;2024-02-23T04:04:44;0.68;;;0.57;;
38940;SDS011;43236;47.208;7.518;2024-02-23T04:07:31;0.65;;;0.55;;
38940;SDS011;43236;47.208;7.518;2024-02-23T04:10:19;0.70;;;0.70;;
38940;SDS011;43236;47.208;7.518;2024-02-23T04:13:07;1.02;;;0.90;;
38940;SDS011;43236;47.208;7.518;2024-02-23T04:15:54;0.98;;;0.77;;
38940;SDS011;43236;47.208;7.518;2024-02-23T04:18:42;0.55;;;0.52;;
38940;SDS011;43236;47.208;7.518;2024-02-23T04:21:29;0.82;;;0.55;;
38940;SDS011;43236;47.208;7.518;2024-02-23T04:24:16;0.57;;;0.57;;
38940;SDS011;43236;47.208;7.518;2024-02-23T04:27:05;0.52;;;0.50;;
38940;SDS011;43236;47.208;7.518;2024-02-23T04:29:52;1.75;;;0.75;;
38940;SDS011;43236;47.208;7.518;2024-02-23T04:32:39;1.55;;;0.60;;
38940;SDS011;43236;47.208;7.518;2024-02-23T04:35:27;0.52;;;0.52;;
38940;SDS011;43236;47.208;7.518;2024-02-23T04:38:14;4.82;;;1.05;;
38940;SDS011;43236;47.208;7.518;2024-02-23T04:41:02;0.63;;;0.63;;
38940;SDS011;43236;47.208;7.518;2024-02-23T04:43:51;0.60;;;0.60;;
38940;SDS011;43236;47.208;7.518;2024-02-23T04:46:44;0.60;;;0.60;;
38940;SDS011;43236;47.208;7.518;2024-02-23T04:49:31;1.40;;;0.57;;
38940;SDS011;43236;47.208;7.518;2024-02-23T04:52:18;0.77;;;0.75;;
38940;SDS011;43236;47.208;7.518;2024-02-23T04:55:05;0.60;;;0.60;;
38940;SDS011;43236;47.208;7.518;2024-02-23T04:57:53;0.65;;;0.60;;
38940;SDS011;43236;47.208;7.518;2024-02-23T05:00:41;0.40;;;0.40;;
38940;SDS011;43236;47.208;7.518;2024-02-23T05:03:28;0.68;;;0.68;;
38940;SDS011;43236;47.208;7.518;2024-02-23T05:06:15;0.73;;;0.63;;
38940;SDS011;43236;47.208;7.518;2024-02-23T05:09:02;0.68;;;0.63;;
38940;SDS011;43236;47.208;7.518;2024-02-23T05:11:51;3.60;;;0.90;;
38940;SDS011;43236;47.208;7.518;2024-02-23T05:14:38;0.77;;;0.70;;
38940;SDS011;43236;47.208;7.518;2024-02-23T05:17:26;0.82;;;0.68;;
38940;SDS011;43236;47.208;7.518;2024-02-23T05:20:13;0.47;;;0.47;;
38940;SDS011;43236;47.208;7.518;2024-02-23T05:23:01;0.52;;;0.52;;
38940;SDS011;43236;47.208;7.518;2024-02-23T05:25:48;0.60;;;0.60;;
38940;SDS011;43236;47.208;7.518;2024-02-23T05:28:35;0.65;;;0.65;;
38940;SDS011;43236;47.208;7.518;2024-02-23T05:31:23;0.68;;;0.68;;
38940;SDS011;43236;47.208;7.518;2024-02-23T05:34:32;0.82;;;0.82;;
38940;SDS011;43236;47.208;7.518;2024-02-23T05:37:20;2.92;;;0.90;;
38940;SDS011;43236;47.208;7.518;2024-02-23T05:40:08;0.60;;;0.60;;
38940;SDS011;43236;47.208;7.518;2024-02-23T05:42:56;0.70;;;0.70;;
38940;SDS011;43236;47.208;7.518;2024-02-23T05:45:43;1.23;;;1.08;;
38940;SDS011;43236;47.208;7.518;2024-02-23T05:48:30;2.15;;;1.45;;
38940;SDS011;43236;47.208;7.518;2024-02-23T05:51:19;0.82;;;0.82;;
38940;SDS011;43236;47.208;7.518;2024-02-23T05:54:06;4.10;;;1.30;;
38940;SDS011;43236;47.208;7.518;2024-02-23T05:56:54;3.25;;;1.00;;
38940;SDS011;43236;47.208;7.518;2024-02-23T05:59:41;1.00;;;0.90;;
38940;SDS011;43236;47.208;7.518;2024-02-23T06:02:28;3.08;;;1.50;;
38940;SDS011;43236;47.208;7.518;2024-02-23T06:05:15;0.98;;;0.93;;
38940;SDS011;43236;47.208;7.518;2024-02-23T06:08:03;1.83;;;1.20;;
38940;SDS011;43236;47.208;7.518;2024-02-23T06:10:51;0.98;;;0.82;;
38940;SDS011;43236;47.208;7.518;2024-02-23T06:13:38;1.10;;;1.00;;
38940;SDS011;43236;47.208;7.518;2024-02-23T06:16:25;2.90;;;1.45;;
38940;SDS011;43236;47.208;7.518;2024-02-23T06:19:12;2.33;;;1.10;;
38940;SDS011;43236;47.208;7.518;2024-02-23T06:21:59;2.42;;;1.65;;
38940;SDS011;43236;47.208;7.518;2024-02-23T06:24:47;1.95;;;1.70;;
38940;SDS011;43236;47.208;7.518;2024-02-23T06:27:34;1.13;;;1.08;;
38940;SDS011;43236;47.208;7.518;2024-02-23T06:30:22;1.20;;;1.10;;
38940;SDS011;43236;47.208;7.518;2024-02-23T06:33:09;1.73;;;1.20;;
38940;SDS011;43236;47.208;7.518;2024-02-23T06:35:56;5.05;;;1.92;;
38940;SDS011;43236;47.208;7.518;2024-02-23T06:38:43;1.40;;;1.17;;
38940;SDS011;43236;47.208;7.518;2024-02-23T06:41:32;1.25;;;1.15;;
38940;SDS011;43236;47.208;7.518;2024-02-23T06:44:19;1.00;;;1.00;;
38940;SDS011;43236;47.208;7.518;2024-02-23T06:47:06;1.90;;;1.70;;
38940;SDS011;43236;47.208;7.518;2024-02-23T06:49:53;3.38;;;1.27;;
38940;SDS011;43236;47.208;7.518;2024-02-23T06:52:40;1.52;;;1.42;;
38940;SDS011;43236;47.208;7.518;2024-02-23T06:55:27;2.38;;;1.30;;
38940;SDS011;43236;47.208;7.518;2024-02-23T06:58:15;1.00;;;0.98;;
38940;SDS011;43236;47.208;7.518;2024-02-23T07:01:03;2.47;;;1.63;;
38940;SDS011;43236;47.208;7.518;2024-02-23T07:03:52;3.15;;;1.55;;
38940;SDS011;43236;47.208;7.518;2024-02-23T07:06:39;2.30;;;1.35;;
38940;SDS011;43236;47.208;7.518;2024-02-23T07:09:26;2.38;;;1.35;;
38940;SDS011;43236;47.208;7.518;2024-02-23T07:12:13;2.03;;;1.60;;
38940;SDS011;43236;47.208;7.518;2024-02-23T07:15:02;3.75;;;1.73;;
38940;SDS011;43236;47.208;7.518;2024-02-23T07:17:49;4.95;;;2.00;;
38940;SDS011;43236;47.208;7.518;2024-02-23T07:20:36;2.95;;;1.42;;
38940;SDS011;43236;47.208;7.518;2024-02-23T07:23:24;4.93;;;1.90;;
38940;SDS011;43236;47.208;7.518;2024-02-23T07:26:11;2.78;;;1.40;;
38940;SDS011;43236;47.208;7.518;2024-02-23T07:28:58;2.08;;;1.60;;
38940;SDS011;43236;47.208;7.518;2024-02-23T07:31:46;2.22;;;2.03;;
38940;SDS011;43236;47.208;7.518;2024-02-23T07:34:33;1.42;;;1.10;;
38940;SDS011;43236;47.208;7.518;2024-02-23T07:37:20;4.65;;;1.65;;
38940;SDS011;43236;47.208;7.518;2024-02-23T07:40:07;1.92;;;1.50;;
38940;SDS011;43236;47.208;7.518;2024-02-23T07:42:55;1.80;;;1.30;;
38940;SDS011;43236;47.208;7.518;2024-02-23T07:45:42;1.02;;;0.90;;
38940;SDS011;43236;47.208;7.518;2024-02-23T07:48:30;1.83;;;1.42;;
38940;SDS011;43236;47.208;7.518;2024-02-23T07:51:17;2.30;;;1.85;;
38940;SDS011;43236;47.208;7.518;2024-02-23T07:54:04;2.10;;;1.30;;
38940;SDS011;43236;47.208;7.518;2024-02-23T07:56:51;1.85;;;1.25;;
38940;SDS011;43236;47.208;7.518;2024-02-23T07:59:38;1.83;;;1.58;;
38940;SDS011;43236;47.208;7.518;2024-02-23T08:02:25;1.60;;;1.33;;
38940;SDS011;43236;47.208;7.518;2024-02-23T08:05:14;3.42;;;1.38;;
38940;SDS011;43236;47.208;7.518;2024-02-23T08:08:01;1.52;;;1.40;;
38940;SDS011;43236;47.208;7.518;2024-02-23T08:10:48;1.75;;;1.30;;
38940;SDS011;43236;47.208;7.518;2024-02-23T08:13:35;2.65;;;1.80;;
38940;SDS011;43236;47.208;7.518;2024-02-23T08:16:22;2.63;;;1.70;;
38940;SDS011;43236;47.208;7.518;2024-02-23T08:19:09;2.30;;;2.05;;
38940;SDS011;43236;47.208;7.518;2024-02-23T08:21:58;3.00;;;1.58;;
38940;SDS011;43236;47.208;7.518;2024-02-23T08:24:45;1.38;;;1.27;;
38940;SDS011;43236;47.208;7.518;2024-02-23T08:27:32;1.75;;;1.65;;
38940;SDS011;43236;47.208;7.518;2024-02-23T08:30:19;2.25;;;1.30;;
38940;SDS011;43236;47.208;7.518;2024-02-23T08:33:06;2.28;;;1.13;;
38940;SDS011;43236;47.208;7.518;2024-02-23T08:35:54;2.00;;;1.10;;
38940;SDS011;43236;47.208;7.518;2024-02-23T08:38:43;2.20;;;1.10;;
38940;SDS011;43236;47.208;7.518;2024-02-23T08:41:30;1.17;;;1.10;;
38940;SDS011;43236;47.208;7.518;2024-02-23T08:44:17;2.42;;;1.15;;
38940;SDS011;43236;47.208;7.518;2024-02-23T08:47:04;3.00;;;0.80;;
38940;SDS011;43236;47.208;7.518;2024-02-23T08:49:51;1.42;;;0.80;;
38940;SDS011;43236;47.208;7.518;2024-02-23T08:52:38;2.72;;;0.77;;
38940;SDS011;43236;47.208;7.518;2024-02-23T08:55:26;2.03;;;1.17;;
38940;SDS011;43236;47.208;7.518;2024-02-23T08:58:14;0.70;;;0.70;;
38940;SDS011;43236;47.208;7.518;2024-02-23T09:01:01;1.40;;;1.02;;
38940;SDS011;43236;47.208;7.518;2024-02-23T09:03:49;2.70;;;0.93;;
38940;SDS011;43236;47.208;7.518;2024-02-23T09:06:36;0.85;;;0.85;;
38940;SDS011;43236;47.208;7.518;2024-02-23T09:09:23;2.55;;;1.20;;
38940;SDS011;43236;47.208;7.518;2024-02-23T09:12:12;2.15;;;1.30;;
38940;SDS011;43236;47.208;7.518;2024-02-23T09:15:01;1.55;;;1.10;;
38940;SDS011;43236;47.208;7.518;2024-02-23T09:17:48;1.73;;;1.05;;
38940;SDS011;43236;47.208;7.518;2024-02-23T09:20:35;5.07;;;1.92;;
38940;SDS011;43236;47.208;7.518;2024-02-23T09:23:22;4.85;;;1.40;;
38940;SDS011;43236;47.208;7.518;2024-02-23T09:26:10;0.70;;;0.70;;
38940;SDS011;43236;47.208;7.518;2024-02-23T09:28:58;1.38;;;1.25;;
38940;SDS011;43236;47.208;7.518;2024-02-23T09:31:45;2.28;;;0.80;;
38940;SDS011;43236;47.208;7.518;2024-02-23T09:34:33;1.73;;;1.45;;
38940;SDS011;43236;47.208;7.518;2024-02-23T09:37:20;0.75;;;0.70;;
38940;SDS011;43236;47.208;7.518;2024-02-23T09:40:07;4.13;;;1.65;;
38940;SDS011;43236;47.208;7.518;2024-02-23T09:42:55;3.72;;;1.55;;
38940;SDS011;43236;47.208;7.518;2024-02-23T09:45:45;1.30;;;0.90;;
38940;SDS011;43236;47.208;7.518;2024-02-23T09:48:33;2.55;;;1.17;;
38940;SDS011;43236;47.208;7.518;2024-02-23T09:51:21;1.25;;;1.15;;
38940;SDS011;43236;47.208;7.518;2024-02-23T09:54:09;1.27;;;1.17;;
38940;SDS011;43236;47.208;7.518;2024-02-23T09:56:57;0.82;;;0.80;;
38940;SDS011;43236;47.208;7.518;2024-02-23T09:59:44;2.85;;;0.95;;
38940;SDS011;43236;47.208;7.518;2024-02-23T10:02:34;2.60;;;1.23;;
38940;SDS011;43236;47.208;7.518;2024-02-23T10:05:23;1.75;;;1.30;;
38940;SDS011;43236;47.208;7.518;2024-02-23T10:08:15;2.25;;;1.05;;
38940;SDS011;43236;47.208;7.518;2024-02-23T10:11:02;2.53;;;0.68;;
38940;SDS011;43236;47.208;7.518;2024-02-23T10:13:49;2.17;;;0.90;;
38940;SDS011;43236;47.208;7.518;2024-02-23T10:16:37;2.35;;;0.85;;
38940;SDS011;43236;47.208;7.518;2024-02-23T10:19:26;1.42;;;1.30;;
38940;SDS011;43236;47.208;7.518;2024-02-23T10:22:14;0.85;;;0.70;;
38940;SDS011;43236;47.208;7.518;2024-02-23T10:25:01;2.60;;;0.70;;
38940;SDS011;43236;47.208;7.518;2024-02-23T10:27:50;0.60;;;0.60;;
38940;SDS011;43236;47.208;7.518;2024-02-23T10:30:37;2.22;;;0.60;;
38940;SDS011;43236;47.208;7.518;2024-02-23T10:33:24;0.80;;;0.70;;
38940;SDS011;43236;47.208;7.518;2024-02-23T10:36:13;4.82;;;0.80;;
38940;SDS011;43236;47.208;7.518;2024-02-23T10:39:02;3.50;;;0.98;;
38940;SDS011;43236;47.208;7.518;2024-02-23T10:41:55;1.35;;;0.60;;
38940;SDS011;43236;47.208;7.518;2024-02-23T10:44:44;3.33;;;0.77;;
38940;SDS011;43236;47.208;7.518;2024-02-23T10:47:31;1.77;;;0.90;;
38940;SDS011;43236;47.208;7.518;2024-02-23T10:50:19;2.00;;;1.35;;
38940;SDS011;43236;47.208;7.518;2024-02-23T10:53:09;1.48;;;1.35;;
38940;SDS011;43236;47.208;7.518;2024-02-23T10:55:57;1.00;;;0.90;;
38940;SDS011;43236;47.208;7.518;2024-02-23T10:58:45;0.68;;;0.68;;
38940;SDS011;43236;47.208;7.518;2024-02-23T11:01:32;1.15;;;0.80;;
38940;SDS011;43236;47.208;7.518;2024-02-23T11:04:21;1.45;;;1.35;;
38940;SDS011;43236;47.208;7.518;2024-02-23T11:07:12;1.40;;;0.93;;
38940;SDS011;43236;47.208;7.518;2024-02-23T11:10:01;0.52;;;0.52;;
38940;SDS011;43236;47.208;7.518;2024-02-23T11:12:56;2.08;;;0.73;;
38940;SDS011;43236;47.208;7.518;2024-02-23T11:15:44;3.10;;;0.82;;
38940;SDS011;43236;47.208;7.518;2024-02-23T11:18:32;0.77;;;0.77;;
38940;SDS011;43236;47.208;7.518;2024-02-23T11:21:21;0.32;;;0.32;;
38940;SDS011;43236;47.208;7.518;2024-02-23T11:24:09;1.65;;;0.75;;
38940;SDS011;43236;47.208;7.518;2024-02-23T11:27:04;1.10;;;0.80;;
38940;SDS011;43236;47.208;7.518;2024-02-23T11:29:58;0.90;;;0.90;;
38940;SDS011;43236;47.208;7.518;2024-02-23T11:32:47;1.92;;;0.47;;
38940;SDS011;43236;47.208;7.518;2024-02-23T11:35:45;0.70;;;0.70;;
38940;SDS011;43236;47.208;7.518;2024-02-23T11:38:34;1.98;;;0.85;;
38940;SDS011;43236;47.208;7.518;2024-02-23T11:41:22;1.15;;;1.08;;
38940;SDS011;43236;47.208;7.518;2024-02-23T11:44:12;0.63;;;0.63;;
38940;SDS011;43236;47.208;7.518;2024-02-23T11:46:59;0.65;;;0.65;;
38940;SDS011;43236;47.208;7.518;2024-02-23T11:49:46;1.83;;;0.77;;
38940;SDS011;43236;47.208;7.518;2024-02-23T11:52:33;0.77;;;0.50;;
38940;SDS011;43236;47.208;7.518;2024-02-23T11:55:20;0.43;;;0.40;;
38940;SDS011;43236;47.208;7.518;2024-02-23T11:58:08;1.25;;;1.00;;
38940;SDS011;43236;47.208;7.518;2024-02-23T12:00:57;0.40;;;0.40;;
38940;SDS011;43236;47.208;7.518;2024-02-23T12:03:46;2.05;;;1.25;;
38940;SDS011;43236;47.208;7.518;2024-02-23T12:06:33;0.98;;;0.45;;
38940;SDS011;43236;47.208;7.518;2024-02-23T12:09:20;1.67;;;0.73;;
38940;SDS011;43236;47.208;7.518;2024-02-23T12:12:07;3.45;;;1.02;;
38940;SDS011;43236;47.208;7.518;2024-02-23T12:14:55;0.70;;;0.70;;
38940;SDS011;43236;47.208;7.518;2024-02-23T12:17:47;0.88;;;0.70;;
38940;SDS011;43236;47.208;7.518;2024-02-23T12:20:35;0.70;;;0.60;;
38940;SDS011;43236;47.208;7.518;2024-02-23T12:23:22;1.40;;;0.68;;
38940;SDS011;43236;47.208;7.518;2024-02-23T12:26:09;0.65;;;0.65;;
38940;SDS011;43236;47.208;7.518;2024-02-23T12:29:00;1.27;;;0.75;;
38940;SDS011;43236;47.208;7.518;2024-02-23T12:31:48;0.60;;;0.60;;
38940;SDS011;43236;47.208;7.518;2024-02-23T12:34:36;0.50;;;0.50;;
38940;SDS011;43236;47.208;7.518;2024-02-23T12:37:23;0.55;;;0.55;;
38940;SDS011;43236;47.208;7.518;2024-02-23T12:40:10;0.73;;;0.73;;
38940;SDS011;43236;47.208;7.518;2024-02-23T12:42:58;2.40;;;0.80;;
38940;SDS011;43236;47.208;7.518;2024-02-23T12:45:45;0.60;;;0.60;;
38940;SDS011;43236;47.208;7.518;2024-02-23T12:48:34;3.25;;;0.90;;
38940;SDS011;43236;47.208;7.518;2024-02-23T12:51:24;1.13;;;0.60;;
38940;SDS011;43236;47.208;7.518;2024-02-23T12:54:12;0.47;;;0.47;;
38940;SDS011;43236;47.208;7.518;2024-02-23T12:56:59;0.68;;;0.68;;
38940;SDS011;43236;47.208;7.518;2024-02-23T12:59:46;0.82;;;0.55;;
38940;SDS011;43236;47.208;7.518;2024-02-23T13:02:33;0.90;;;0.75;;
38940;SDS011;43236;47.208;7.518;2024-02-23T13:05:20;0.50;;;0.50;;
38940;SDS011;43236;47.208;7.518;2024-02-23T13:08:09;1.00;;;0.90;;
38940;SDS011;43236;47.208;7.518;2024-02-23T13:10:56;0.82;;;0.82;;
38940;SDS011;43236;47.208;7.518;2024-02-23T13:13:43;0.47;;;0.47;;
38940;SDS011;43236;47.208;7.518;2024-02-23T13:16:30;1.13;;;0.90;;
38940;SDS011;43236;47.208;7.518;2024-02-23T13:19:18;0.47;;;0.47;;
38940;SDS011;43236;47.208;7.518;2024-02-23T13:22:05;0.65;;;0.50;;
38940;SDS011;43236;47.208;7.518;2024-02-23T13:24:53;1.70;;;0.52;;
38940;SDS011;43236;47.208;7.518;2024-02-23T13:27:40;1.15;;;0.77;;
38940;SDS011;43236;47.208;7.518;2024-02-23T13:30:27;1.75;;;0.60;;
38940;SDS011;43236;47.208;7.518;2024-02-23T13:33:14;2.03;;;0.90;;
38940;SDS011;43236;47.208;7.518;2024-02-23T13:36:01;1.95;;;0.80;;
38940;SDS011;43236;47.208;7.518;2024-02-23T13:38:49;0.60;;;0.60;;
38940;SDS011;43236;47.208;7.518;2024-02-23T13:41:37;3.33;;;0.85;;
38940;SDS011;43236;47.208;7.518;2024-02-23T13:44:24;0.50;;;0.50;;
38940;SDS011;43236;47.208;7.518;2024-02-23T13:47:12;0.70;;;0.70;;
38940;SDS011;43236;47.208;7.518;2024-02-23T13:49:59;1.40;;;1.02;;
38940;SDS011;43236;47.208;7.518;2024-02-23T13:52:46;1.55;;;0.80;;
38940;SDS011;43236;47.208;7.518;2024-02-23T13:55:33;0.63;;;0.63;;
38940;SDS011;43236;47.208;7.518;2024-02-23T13:58:21;0.68;;;0.45;;
38940;SDS011;43236;47.208;7.518;2024-02-23T14:01:08;2.67;;;0.90;;
38940;SDS011;43236;47.208;7.518;2024-02-23T14:03:55;0.57;;;0.57;;
38940;SDS011;43236;47.208;7.518;2024-02-23T14:06:42;2.72;;;0.60;;
38940;SDS011;43236;47.208;7.518;2024-02-23T14:09:29;0.98;;;0.77;;
38940;SDS011;43236;47.208;7.518;2024-02-23T14:12:16;2.78;;;0.82;;
38940;SDS011;43236;47.208;7.518;2024-02-23T14:15:06;2.78;;;0.98;;
38940;SDS011;43236;47.208;7.518;2024-02-23T14:17:54;0.52;;;0.52;;
38940;SDS011;43236;47.208;7.518;2024-02-23T14:20:41;0.50;;;0.50;;
38940;SDS011;43236;47.208;7.518;2024-02-23T14:23:28;3.00;;;1.20;;
38940;SDS011;43236;47.208;7.518;2024-02-23T14:26:15;0.98;;;0.88;;
38940;SDS011;43236;47.208;7.518;2024-02-23T14:29:02;1.60;;;0.93;;
38940;SDS011;43236;47.208;7.518;2024-02-23T14:31:50;0.98;;;0.95;;
38940;SDS011;43236;47.208;7.518;2024-02-23T14:34:38;0.65;;;0.65;;
38940;SDS011;43236;47.208;7.518;2024-02-23T14:37:25;1.65;;;1.05;;
38940;SDS011;43236;47.208;7.518;2024-02-23T14:40:12;1.55;;;0.90;;
38940;SDS011;43236;47.208;7.518;2024-02-23T14:43:00;0.60;;;0.60;;
38940;SDS011;43236;47.208;7.518;2024-02-23T14:45:47;1.30;;;0.50;;
38940;SDS011;43236;47.208;7.518;2024-02-23T14:48:38;1.10;;;0.63;;
38940;SDS011;43236;47.208;7.518;2024-02-23T14:51:25;0.60;;;0.57;;
38940;SDS011;43236;47.208;7.518;2024-02-23T14:54:12;2.45;;;1.08;;
38940;SDS011;43236;47.208;7.518;2024-02-23T14:56:59;0.63;;;0.63;;
38940;SDS011;43236;47.208;7.518;2024-02-23T14:59:46;0.50;;;0.50;;
38940;SDS011;43236;47.208;7.518;2024-02-23T15:02:35;0.82;;;0.60;;
38940;SDS011;43236;47.208;7.518;2024-02-23T15:05:23;0.50;;;0.50;;
38940;SDS011;43236;47.208;7.518;2024-02-23T15:08:10;0.70;;;0.70;;
38940;SDS011;43236;47.208;7.518;2024-02-23T15:10:58;0.95;;;0.85;;
38940;SDS011;43236;47.208;7.518;2024-02-23T15:13:45;1.13;;;1.13;;
38940;SDS011;43236;47.208;7.518;2024-02-23T15:16:32;0.68;;;0.68;;
38940;SDS011;43236;47.208;7.518;2024-02-23T15:19:19;0.40;;;0.40;;
38940;SDS011;43236;47.208;7.518;2024-02-23T15:22:07;0.40;;;0.40;;
38940;SDS011;43236;47.208;7.518;2024-02-23T15:24:59;2.15;;;0.50;;
38940;SDS011;43236;47.208;7.518;2024-02-23T15:27:46;0.40;;;0.40;;
38940;SDS011;43236;47.208;7.518;2024-02-23T15:30:34;4.28;;;0.75;;
38940;SDS011;43236;47.208;7.518;2024-02-23T15:33:21;0.55;;;0.43;;
38940;SDS011;43236;47.208;7.518;2024-02-23T15:36:08;0.40;;;0.40;;
38940;SDS011;43236;47.208;7.518;2024-02-23T15:38:57;1.48;;;1.27;;
38940;SDS011;43236;47.208;7.518;2024-02-23T15:41:45;0.50;;;0.50;;
38940;SDS011;43236;47.208;7.518;2024-02-23T15:44:32;0.65;;;0.65;;
38940;SDS011;43236;47.208;7.518;2024-02-23T15:47:19;0.65;;;0.47;;
38940;SDS011;43236;47.208;7.518;2024-02-23T15:50:06;4.22;;;0.80;;
38940;SDS011;43236;47.208;7.518;2024-02-23T15:52:54;0.93;;;0.60;;
38940;SDS011;43236;47.208;7.518;2024-02-23T15:55:42;0.75;;;0.75;;
38940;SDS011;43236;47.208;7.518;2024-02-23T15:58:29;2.80;;;0.98;;
38940;SDS011;43236;47.208;7.518;2024-02-23T16:01:17;2.47;;;1.33;;
38940;SDS011;43236;47.208;7.518;2024-02-23T16:04:04;2.03;;;1.10;;
38940;SDS011;43236;47.208;7.518;2024-02-23T16:06:51;2.03;;;0.80;;
38940;SDS011;43236;47.208;7.518;2024-02-23T16:09:38;3.25;;;0.82;;
38940;SDS011;43236;47.208;7.518;2024-02-23T16:12:27;2.03;;;1.05;;
38940;SDS011;43236;47.208;7.518;2024-02-23T16:15:14;0.85;;;0.85;;
38940;SDS011;43236;47.208;7.518;2024-02-23T16:18:01;2.10;;;0.80;;
38940;SDS011;43236;47.208;7.518;2024-02-23T16:20:49;3.83;;;2.35;;
38940;SDS011;43236;47.208;7.518;2024-02-23T16:23:36;1.58;;;1.48;;
38940;SDS011;43236;47.208;7.518;2024-02-23T16:26:23;0.60;;;0.60;;
38940;SDS011;43236;47.208;7.518;2024-02-23T16:29:12;0.45;;;0.45;;
38940;SDS011;43236;47.208;7.518;2024-02-23T16:31:59;0.57;;;0.57;;
38940;SDS011;43236;47.208;7.518;2024-02-23T16:34:46;0.75;;;0.75;;
38940;SDS011;43236;47.208;7.518;2024-02-23T16:37:33;1.55;;;1.00;;
38940;SDS011;43236;47.208;7.518;2024-02-23T16:40:20;2.63;;;0.88;;
38940;SDS011;43236;47.208;7.518;2024-02-23T16:43:13;0.70;;;0.70;;
38940;SDS011;43236;47.208;7.518;2024-02-23T16:46:01;2.03;;;1.50;;
38940;SDS011;43236;47.208;7.518;2024-02-23T16:48:48;1.05;;;0.93;;
38940;SDS011;43236;47.208;7.518;2024-02-23T16:51:35;1.10;;;0.80;;